createdAt,value
2022-08-05T00:00:18.909Z,21.00
2022-08-05T00:02:51.542Z,20.90
2022-08-05T00:05:27.157Z,20.80
2022-08-05T00:08:32.827Z,20.70
2022-08-05T00:11:00.506Z,20.70
2022-08-05T00:13:38.181Z,20.80
2022-08-05T00:16:12.610Z,20.80
2022-08-05T00:18:49.705Z,20.80
2022-08-05T00:21:19.726Z,20.70
2022-08-05T00:23:53.642Z,20.70
2022-08-05T00:26:35.433Z,20.70
2022-08-05T00:29:02.339Z,20.70
2022-08-05T00:31:53.216Z,20.70
2022-08-05T00:34:54.892Z,20.70
2022-08-05T00:37:09.987Z,20.70
2022-08-05T00:39:44.317Z,20.80
2022-08-05T00:42:36.964Z,20.80
2022-08-05T00:45:08.787Z,20.80
2022-08-05T00:47:56.553Z,20.80
2022-08-05T00:50:25.988Z,20.80
2022-08-05T00:52:55.329Z,20.80
2022-08-05T00:55:34.209Z,20.70
2022-08-05T00:58:12.798Z,20.60
2022-08-05T01:00:40.874Z,20.60
2022-08-05T01:03:22.270Z,20.60
2022-08-05T01:05:54.610Z,20.50
2022-08-05T01:08:42.368Z,20.50
2022-08-05T01:11:22.535Z,20.40
2022-08-05T01:14:16.774Z,20.40
2022-08-05T01:17:17.521Z,20.30
2022-08-05T01:20:13.054Z,20.20
2022-08-05T01:23:14.237Z,20.10
2022-08-05T01:26:04.513Z,20.10
2022-08-05T01:28:39.483Z,20.00
2022-08-05T01:31:32.639Z,20.10
2022-08-05T01:34:51.346Z,20.00
2022-08-05T01:37:52.077Z,19.90
2022-08-05T01:40:28.954Z,19.80
2022-08-05T01:42:58.198Z,19.80
2022-08-05T01:45:28.085Z,19.70
2022-08-05T01:48:03.173Z,19.70
2022-08-05T01:50:41.134Z,19.70
2022-08-05T01:53:54.794Z,19.70
2022-08-05T01:56:09.906Z,19.60
2022-08-05T01:58:44.775Z,19.50
2022-08-05T02:01:14.610Z,19.40
2022-08-05T02:03:50.851Z,19.40
2022-08-05T02:06:37.865Z,19.40
2022-08-05T02:09:06.303Z,19.40
2022-08-05T02:12:20.583Z,19.40
2022-08-05T02:14:53.733Z,19.50
2022-08-05T02:18:28.862Z,19.50
2022-08-05T02:20:40.414Z,19.40
2022-08-05T02:23:11.993Z,19.30
2022-08-05T02:25:50.093Z,19.30
2022-08-05T02:28:28.912Z,19.40
2022-08-05T02:31:14.669Z,19.40
2022-08-05T02:33:57.688Z,19.40
2022-08-05T02:36:27.296Z,19.30
2022-08-05T02:38:57.754Z,19.20
2022-08-05T02:41:28.401Z,19.20
2022-08-05T02:44:13.121Z,19.20
2022-08-05T02:46:53.218Z,19.20
2022-08-05T02:49:36.958Z,19.20
2022-08-05T02:52:29.371Z,19.10
2022-08-05T02:54:58.017Z,19.00
2022-08-05T02:58:11.880Z,19.00
2022-08-05T03:00:17.708Z,18.80
2022-08-05T03:02:47.273Z,18.80
2022-08-05T03:05:16.194Z,18.80
2022-08-05T03:08:01.042Z,18.70
2022-08-05T03:10:31.594Z,18.60
2022-08-05T03:15:27.503Z,18.50
2022-08-05T03:17:57.476Z,18.50
2022-08-05T03:20:25.235Z,18.50
2022-08-05T03:22:57.059Z,18.50
2022-08-05T03:25:33.751Z,18.40
2022-08-05T03:28:13.923Z,18.50
2022-08-05T03:30:42.283Z,18.60
2022-08-05T03:33:09.832Z,18.60
2022-08-05T03:35:40.906Z,18.60
2022-08-05T03:38:12.596Z,18.70
2022-08-05T03:40:45.239Z,18.70
2022-08-05T03:44:09.335Z,18.70
2022-08-05T03:46:04.554Z,18.60
2022-08-05T03:48:35.071Z,18.50
2022-08-05T03:52:37.589Z,18.40
2022-08-05T03:55:54.743Z,18.30
2022-08-05T03:57:16.619Z,18.40
2022-08-05T03:59:56.278Z,18.40
2022-08-05T04:02:39.104Z,18.40
2022-08-05T04:05:13.345Z,18.40
2022-08-05T04:07:57.181Z,18.40
2022-08-05T04:10:27.489Z,18.30
2022-08-05T04:12:59.046Z,18.30
2022-08-05T04:15:27.975Z,18.30
2022-08-05T04:18:06.974Z,18.20
2022-08-05T04:20:34.865Z,18.20
2022-08-05T04:23:01.810Z,18.30
2022-08-05T04:25:56.887Z,18.30
2022-08-05T04:28:15.518Z,18.30
2022-08-05T04:30:44.868Z,18.40
2022-08-05T04:33:12.485Z,18.50
2022-08-05T04:36:16.489Z,18.50
2022-08-05T04:38:39.547Z,18.60
2022-08-05T04:41:09.472Z,18.60
2022-08-05T04:43:46.614Z,18.60
2022-08-05T04:46:28.170Z,18.70
2022-08-05T04:48:55.524Z,18.60
2022-08-05T04:51:25.771Z,18.70
2022-08-05T04:53:57.553Z,18.80
2022-08-05T04:56:34.421Z,18.90
2022-08-05T04:59:22.343Z,19.00
2022-08-05T05:02:07.853Z,19.00
2022-08-05T05:04:44.159Z,19.10
2022-08-05T05:07:18.096Z,19.30
2022-08-05T05:09:45.784Z,19.40
2022-08-05T05:12:12.686Z,19.50
2022-08-05T05:14:49.089Z,19.60
2022-08-05T05:17:23.264Z,19.60
2022-08-05T05:19:55.093Z,19.80
2022-08-05T05:22:26.404Z,19.90
2022-08-05T05:24:59.885Z,20.00
2022-08-05T05:27:44.395Z,20.20
2022-08-05T05:30:15.308Z,20.30
2022-08-05T05:33:00.503Z,20.40
2022-08-05T05:35:37.705Z,20.60
2022-08-05T05:38:09.057Z,20.80
2022-08-05T05:40:45.060Z,21.00
2022-08-05T05:43:22.135Z,21.00
2022-08-05T05:46:04.018Z,21.20
2022-08-05T05:48:32.351Z,21.40
2022-08-05T05:51:15.080Z,21.40
2022-08-05T05:53:54.396Z,21.60
2022-08-05T05:56:32.750Z,21.90
2022-08-05T05:59:08.046Z,22.10
2022-08-05T06:01:39.453Z,22.40
2022-08-05T06:04:13.124Z,22.60
2022-08-05T06:06:47.817Z,22.90
2022-08-05T06:09:50.168Z,23.10
2022-08-05T06:12:04.207Z,23.40
2022-08-05T06:14:32.003Z,23.90
2022-08-05T06:17:01.893Z,24.30
2022-08-05T06:19:35.388Z,24.70
2022-08-05T06:22:07.939Z,25.20
2022-08-05T06:24:41.718Z,25.60
2022-08-05T06:28:08.811Z,25.80
2022-08-05T06:30:17.963Z,25.80
2022-08-05T06:32:47.086Z,25.40
2022-08-05T06:35:15.486Z,25.30
2022-08-05T06:38:04.241Z,25.10
2022-08-05T06:40:35.138Z,25.00
2022-08-05T06:43:58.488Z,25.50
2022-08-05T06:46:04.126Z,25.90
2022-08-05T06:48:50.357Z,26.40
2022-08-05T06:51:29.334Z,26.70
2022-08-05T06:54:02.705Z,27.00
2022-08-05T06:56:34.330Z,27.50
2022-08-05T06:59:03.687Z,27.60
2022-08-05T07:01:40.789Z,28.00
2022-08-05T07:04:10.072Z,28.10
2022-08-05T07:06:37.011Z,28.40
2022-08-05T07:09:04.971Z,28.70
2022-08-05T07:11:37.278Z,29.20
2022-08-05T07:14:28.885Z,29.50
2022-08-05T07:17:58.903Z,29.70
2022-08-05T07:20:31.471Z,29.90
2022-08-05T07:22:38.450Z,30.00
2022-08-05T07:25:54.417Z,30.60
2022-08-05T07:27:58.445Z,31.10
2022-08-05T07:30:38.744Z,31.20
2022-08-05T07:33:10.678Z,31.20
2022-08-05T07:36:05.227Z,31.00
2022-08-05T07:38:33.977Z,30.80
2022-08-05T07:42:08.541Z,30.50
2022-08-05T07:43:59.361Z,30.40
2022-08-05T07:46:28.930Z,30.10
2022-08-05T07:49:01.679Z,29.80
2022-08-05T07:51:41.079Z,29.60
2022-08-05T07:54:23.297Z,29.50
2022-08-05T07:57:13.595Z,29.80
2022-08-05T07:59:41.417Z,29.90
2022-08-05T08:02:15.733Z,30.40
2022-08-05T08:04:45.674Z,30.90
2022-08-05T08:07:13.817Z,31.00
2022-08-05T08:09:40.850Z,31.10
2022-08-05T08:12:35.549Z,31.30
2022-08-05T08:14:54.869Z,31.50
2022-08-05T08:17:22.047Z,31.50
2022-08-05T08:20:23.515Z,31.50
2022-08-05T08:22:37.424Z,31.70
2022-08-05T08:25:16.163Z,31.60
2022-08-05T08:27:47.329Z,31.50
2022-08-05T08:30:27.696Z,31.70
2022-08-05T08:33:02.668Z,31.60
2022-08-05T08:35:34.838Z,31.50
2022-08-05T08:38:08.306Z,31.20
2022-08-05T08:40:39.526Z,31.40
2022-08-05T08:45:01.618Z,31.20
2022-08-05T08:45:55.185Z,30.70
2022-08-05T08:48:41.460Z,30.70
2022-08-05T08:51:54.649Z,30.80
2022-08-05T08:53:56.722Z,30.70
2022-08-05T08:56:26.960Z,30.60
2022-08-05T08:58:54.588Z,30.60
2022-08-05T09:01:22.005Z,30.60
2022-08-05T09:03:57.510Z,30.80
2022-08-05T09:06:30.883Z,31.00
2022-08-05T09:09:02.591Z,31.50
2022-08-05T09:11:51.931Z,31.80
2022-08-05T09:14:57.715Z,32.10
2022-08-05T09:17:41.220Z,32.00
2022-08-05T09:20:02.492Z,32.50
2022-08-05T09:23:05.259Z,32.80
2022-08-05T09:25:59.896Z,33.00
2022-08-05T09:28:32.615Z,32.80
2022-08-05T09:32:38.678Z,32.40
2022-08-05T09:34:11.743Z,32.50
2022-08-05T09:36:55.323Z,32.50
2022-08-05T09:39:41.200Z,32.80
2022-08-05T09:42:28.277Z,33.00
2022-08-05T09:45:03.423Z,32.90
2022-08-05T09:47:55.673Z,32.30
2022-08-05T09:50:38.407Z,32.50
2022-08-05T09:53:23.062Z,32.30
2022-08-05T09:56:04.474Z,32.70
2022-08-05T09:58:32.097Z,33.10
2022-08-05T10:01:07.271Z,32.90
2022-08-05T10:04:10.366Z,32.80
2022-08-05T10:06:40.569Z,32.90
2022-08-05T10:09:28.384Z,32.90
2022-08-05T10:12:30.220Z,33.20
2022-08-05T10:15:21.901Z,33.30
2022-08-05T10:18:16.673Z,33.40
2022-08-05T10:20:47.943Z,33.50
2022-08-05T10:23:55.176Z,33.80
2022-08-05T10:26:51.686Z,33.40
2022-08-05T10:29:01.140Z,33.20
2022-08-05T10:32:53.222Z,33.40
2022-08-05T10:34:17.013Z,33.00
2022-08-05T10:36:44.818Z,32.90
2022-08-05T10:39:59.075Z,32.80
2022-08-05T10:42:32.378Z,33.10
2022-08-05T10:45:21.229Z,33.20
2022-08-05T10:48:29.731Z,33.50
2022-08-05T10:51:22.088Z,33.70
2022-08-05T10:53:58.544Z,33.90
2022-08-05T10:56:43.957Z,33.60
2022-08-05T11:00:02.189Z,34.30
2022-08-05T11:02:14.658Z,34.50
2022-08-05T11:05:06.621Z,34.30
2022-08-05T11:08:02.711Z,34.60
2022-08-05T11:10:27.589Z,34.40
2022-08-05T11:12:57.914Z,34.80
2022-08-05T11:15:59.535Z,34.60
2022-08-05T11:18:26.710Z,35.10
2022-08-05T11:20:54.581Z,35.50
2022-08-05T11:24:03.111Z,35.50
2022-08-05T11:26:28.973Z,35.40
2022-08-05T11:29:12.633Z,35.10
2022-08-05T11:31:57.072Z,34.70
2022-08-05T11:34:47.599Z,34.80
2022-08-05T11:38:26.510Z,34.80
2022-08-05T11:41:12.756Z,34.90
2022-08-05T11:44:07.597Z,35.00
2022-08-05T11:46:58.682Z,35.10
2022-08-05T11:49:34.613Z,35.40
2022-08-05T11:52:08.724Z,35.30
2022-08-05T11:54:40.563Z,35.90
2022-08-05T11:57:24.258Z,36.20
2022-08-05T11:59:53.596Z,37.00
2022-08-05T12:02:30.773Z,37.30
2022-08-05T12:05:07.617Z,36.90
2022-08-05T12:08:08.263Z,36.00
2022-08-05T12:10:38.506Z,35.60
2022-08-05T12:13:27.971Z,36.30
2022-08-05T12:16:14.521Z,35.90
2022-08-05T12:18:52.380Z,35.80
2022-08-05T12:21:21.378Z,35.80
2022-08-05T12:24:09.721Z,36.30
2022-08-05T12:26:52.869Z,36.40
2022-08-05T12:29:25.529Z,36.40
2022-08-05T12:32:02.006Z,36.60
2022-08-05T12:34:33.566Z,36.80
2022-08-05T12:37:21.431Z,36.60
2022-08-05T12:39:54.772Z,37.30
2022-08-05T12:42:31.108Z,36.80
2022-08-05T12:45:18.548Z,37.20
2022-08-05T12:48:01.735Z,37.70
2022-08-05T12:50:35.980Z,37.80
2022-08-05T12:53:02.842Z,37.80
2022-08-05T12:55:32.795Z,37.90
2022-08-05T12:58:48.355Z,37.70
2022-08-05T13:02:02.135Z,37.70
2022-08-05T13:03:41.575Z,37.80
2022-08-05T13:06:16.110Z,37.70
2022-08-05T13:08:50.612Z,38.30
2022-08-05T13:12:02.931Z,38.50
2022-08-05T13:14:24.836Z,38.50
2022-08-05T13:17:32.061Z,38.60
2022-08-05T13:20:19.179Z,38.90
2022-08-05T13:22:52.445Z,38.60
2022-08-05T13:25:22.013Z,38.10
2022-08-05T13:28:07.865Z,38.40
2022-08-05T13:30:39.048Z,38.70
2022-08-05T13:33:06.213Z,38.50
2022-08-05T13:35:47.088Z,38.10
2022-08-05T13:38:30.507Z,38.60
2022-08-05T13:41:00.194Z,38.80
2022-08-05T13:43:43.322Z,38.40
2022-08-05T13:46:13.712Z,38.20
2022-08-05T13:48:58.261Z,39.10
2022-08-05T13:51:40.253Z,39.40
2022-08-05T13:54:11.898Z,38.90
2022-08-05T13:56:44.937Z,37.80
2022-08-05T13:59:19.506Z,36.30
2022-08-05T14:01:59.068Z,35.80
2022-08-05T14:05:00.583Z,35.00
2022-08-05T14:08:00.419Z,36.40
2022-08-05T14:10:29.138Z,37.00
2022-08-05T14:12:59.566Z,37.30
2022-08-05T14:16:05.914Z,38.40
2022-08-05T14:18:18.071Z,38.20
2022-08-05T14:20:49.141Z,38.00
2022-08-05T14:23:25.649Z,38.20
2022-08-05T14:25:59.047Z,38.30
2022-08-05T14:28:30.886Z,38.10
2022-08-05T14:31:01.708Z,38.20
2022-08-05T14:33:56.699Z,38.00
2022-08-05T14:36:20.559Z,38.10
2022-08-05T14:38:48.894Z,38.00
2022-08-05T14:41:17.777Z,38.20
2022-08-05T14:43:57.592Z,37.70
2022-08-05T14:46:29.726Z,37.50
2022-08-05T14:49:07.231Z,37.70
2022-08-05T14:51:37.462Z,38.10
2022-08-05T14:54:26.619Z,37.80
2022-08-05T14:56:53.735Z,38.40
2022-08-05T14:59:22.044Z,38.80
2022-08-05T15:01:49.907Z,39.50
2022-08-05T15:04:20.595Z,39.80
2022-08-05T15:06:52.974Z,40.20
2022-08-05T15:09:52.656Z,40.60
2022-08-05T15:12:11.741Z,40.50
2022-08-05T15:14:50.325Z,40.90
2022-08-05T15:17:47.054Z,41.10
2022-08-05T15:20:18.255Z,41.10
2022-08-05T15:22:52.396Z,41.60
2022-08-05T15:25:51.484Z,41.90
2022-08-05T15:28:14.547Z,42.20
2022-08-05T15:30:43.639Z,42.20
2022-08-05T15:33:12.783Z,41.50
2022-08-05T15:35:59.613Z,41.00
2022-08-05T15:38:35.373Z,40.70
2022-08-05T15:41:22.624Z,41.00
2022-08-05T15:43:51.898Z,41.50
2022-08-05T15:46:24.762Z,41.20
2022-08-05T15:49:01.185Z,40.00
2022-08-05T15:52:12.541Z,38.60
2022-08-05T15:54:34.372Z,37.90
2022-08-05T15:57:02.240Z,37.20
2022-08-05T15:59:29.110Z,37.40
2022-08-05T16:01:56.339Z,37.00
2022-08-05T16:04:27.959Z,36.60
2022-08-05T16:06:55.449Z,35.90
2022-08-05T16:09:23.713Z,35.40
2022-08-05T16:11:53.194Z,34.20
2022-08-05T16:14:22.423Z,33.30
2022-08-05T16:16:50.307Z,33.10
2022-08-05T16:19:25.296Z,33.40
2022-08-05T16:22:00.834Z,33.20
2022-08-05T16:24:39.998Z,33.20
2022-08-05T16:27:09.228Z,33.30
2022-08-05T16:29:37.067Z,33.40
2022-08-05T16:32:06.623Z,33.20
2022-08-05T16:34:36.778Z,32.90
2022-08-05T16:38:03.039Z,32.90
2022-08-05T16:40:04.666Z,32.50
2022-08-05T16:42:35.121Z,32.50
2022-08-05T16:46:02.842Z,32.60
2022-08-05T16:47:53.558Z,32.60
2022-08-05T16:50:23.349Z,32.10
2022-08-05T16:52:50.480Z,31.90
2022-08-05T16:55:20.574Z,31.70
2022-08-05T16:57:59.915Z,31.60
2022-08-05T17:00:34.401Z,31.50
2022-08-05T17:03:03.744Z,31.50
2022-08-05T17:05:37.100Z,31.30
2022-08-05T17:08:04.966Z,31.10
2022-08-05T17:10:31.842Z,31.20
2022-08-05T17:12:58.713Z,31.10
2022-08-05T17:15:29.317Z,30.90
2022-08-05T17:18:15.871Z,30.70
2022-08-05T17:20:44.236Z,30.60
2022-08-05T17:24:03.122Z,30.60
2022-08-05T17:25:59.452Z,30.40
2022-08-05T17:28:26.322Z,30.40
2022-08-05T17:30:55.852Z,30.30
2022-08-05T17:33:23.099Z,30.30
2022-08-05T17:36:08.809Z,30.30
2022-08-05T17:38:37.094Z,30.30
2022-08-05T17:41:07.191Z,30.20
2022-08-05T17:43:53.197Z,30.20
2022-08-05T17:46:21.085Z,30.20
2022-08-05T17:48:48.233Z,30.10
2022-08-05T17:51:21.862Z,30.10
2022-08-05T17:53:50.816Z,30.00
2022-08-05T17:56:22.646Z,29.90
2022-08-05T17:58:49.903Z,29.70
2022-08-05T18:01:18.857Z,29.60
2022-08-05T18:03:59.053Z,29.60
2022-08-05T18:06:31.475Z,29.50
2022-08-05T18:08:59.457Z,29.40
2022-08-05T18:11:33.463Z,29.40
2022-08-05T18:14:04.218Z,29.30
2022-08-05T18:16:33.551Z,29.20
2022-08-05T18:19:00.669Z,29.00
2022-08-05T18:21:28.118Z,28.90
2022-08-05T18:24:14.729Z,28.90
2022-08-05T18:26:41.866Z,28.80
2022-08-05T18:29:10.806Z,28.70
2022-08-05T18:31:38.216Z,28.60
2022-08-05T18:34:12.625Z,28.50
2022-08-05T18:36:40.014Z,28.30
2022-08-05T18:39:09.855Z,28.20
2022-08-05T18:41:58.816Z,28.10
2022-08-05T18:44:35.093Z,28.00
2022-08-05T18:47:15.738Z,27.90
2022-08-05T18:50:10.443Z,27.90
2022-08-05T18:52:41.767Z,27.90
2022-08-05T18:55:19.233Z,27.90
2022-08-05T18:57:52.767Z,28.00
2022-08-05T19:00:29.220Z,28.20
2022-08-05T19:03:03.737Z,28.20
2022-08-05T19:06:12.178Z,28.10
2022-08-05T19:08:18.801Z,27.90
2022-08-05T19:10:45.789Z,27.80
2022-08-05T19:13:15.989Z,27.70
2022-08-05T19:15:58.802Z,27.60
2022-08-05T19:18:30.193Z,27.50
2022-08-05T19:20:59.477Z,27.40
2022-08-05T19:24:07.615Z,27.30
2022-08-05T19:26:13.954Z,27.30
2022-08-05T19:28:44.451Z,27.20
2022-08-05T19:31:13.545Z,27.20
2022-08-05T19:33:48.324Z,27.20
2022-08-05T19:36:27.012Z,27.10
2022-08-05T19:39:00.721Z,27.10
2022-08-05T19:42:05.549Z,27.00
2022-08-05T19:44:17.377Z,26.90
2022-08-05T19:46:45.697Z,26.90
2022-08-05T19:49:17.161Z,26.90
2022-08-05T19:52:05.206Z,26.70
2022-08-05T19:54:34.731Z,26.60
2022-08-05T19:57:08.619Z,26.60
2022-08-05T19:59:56.297Z,26.70
2022-08-05T20:02:27.795Z,26.70
2022-08-05T20:04:58.479Z,26.70
2022-08-05T20:07:45.816Z,26.70
2022-08-05T20:10:15.989Z,26.70
2022-08-05T20:12:47.757Z,26.70
2022-08-05T20:15:47.843Z,26.50
2022-08-05T20:18:10.354Z,26.20
2022-08-05T20:20:56.820Z,26.00
2022-08-05T20:23:40.573Z,25.80
2022-08-05T20:26:16.157Z,25.50
2022-08-05T20:28:47.861Z,25.00
2022-08-05T20:31:16.471Z,24.70
2022-08-05T20:33:44.900Z,24.30
2022-08-05T20:36:16.230Z,23.70
2022-08-05T20:38:53.461Z,23.20
2022-08-05T20:41:26.639Z,22.70
2022-08-05T20:43:59.154Z,22.30
2022-08-05T20:46:30.094Z,22.10
2022-08-05T20:48:57.118Z,21.90
2022-08-05T20:51:23.958Z,21.90
2022-08-05T20:53:56.380Z,21.80
2022-08-05T20:56:28.804Z,21.60
2022-08-05T20:59:04.080Z,21.40
2022-08-05T21:01:41.592Z,21.10
2022-08-05T21:04:10.563Z,20.70
2022-08-05T21:06:45.824Z,20.50
2022-08-05T21:09:14.935Z,20.50
2022-08-05T21:12:08.943Z,20.50
2022-08-05T21:14:35.141Z,20.40
2022-08-05T21:17:05.234Z,20.30
2022-08-05T21:19:47.207Z,20.40
2022-08-05T21:22:18.589Z,20.50
2022-08-05T21:24:52.363Z,20.50
2022-08-05T21:27:25.422Z,20.50
2022-08-05T21:29:58.309Z,20.40
2022-08-05T21:32:29.258Z,20.30
2022-08-05T21:35:16.695Z,20.30
2022-08-05T21:37:53.119Z,20.30
2022-08-05T21:40:22.571Z,20.00
2022-08-05T21:42:52.615Z,20.00
2022-08-05T21:45:24.527Z,19.90
2022-08-05T21:47:56.501Z,20.00
2022-08-05T21:50:26.347Z,20.20
2022-08-05T21:52:53.792Z,20.40
2022-08-05T21:56:01.136Z,20.30
2022-08-05T21:58:13.015Z,20.30
2022-08-05T22:00:40.273Z,20.20
2022-08-05T22:03:09.912Z,20.20
2022-08-05T22:05:48.932Z,20.40
2022-08-05T22:08:22.177Z,20.40
2022-08-05T22:10:53.323Z,20.30
2022-08-05T22:14:19.561Z,20.30
2022-08-05T22:16:32.099Z,20.10
2022-08-05T22:18:54.250Z,20.00
2022-08-05T22:21:25.859Z,20.00
2022-08-05T22:24:13.288Z,20.10
2022-08-05T22:27:17.650Z,19.80
2022-08-05T22:29:44.657Z,19.80
2022-08-05T22:32:12.828Z,19.90
2022-08-05T22:34:44.581Z,20.00
2022-08-05T22:37:12.763Z,20.00
2022-08-05T22:39:39.798Z,20.10
2022-08-05T22:42:12.694Z,20.10
2022-08-05T22:44:48.431Z,20.00
2022-08-05T22:47:28.594Z,20.00
2022-08-05T22:50:20.226Z,19.90
2022-08-05T22:52:46.726Z,20.00
2022-08-05T22:55:19.482Z,20.00
2022-08-05T22:57:49.108Z,20.00
2022-08-05T23:00:17.816Z,20.00
2022-08-05T23:02:46.883Z,20.00
2022-08-05T23:05:15.790Z,20.00
2022-08-05T23:07:45.244Z,19.90
2022-08-05T23:10:20.067Z,19.90
2022-08-05T23:12:54.679Z,19.80
2022-08-05T23:15:29.943Z,19.90
2022-08-05T23:18:03.536Z,19.90
2022-08-05T23:20:33.770Z,20.00
2022-08-05T23:23:08.394Z,19.90
2022-08-05T23:25:51.552Z,19.90
2022-08-05T23:28:20.933Z,20.00
2022-08-05T23:30:53.470Z,20.00
2022-08-05T23:33:25.837Z,20.00
2022-08-05T23:35:55.163Z,20.00
2022-08-05T23:38:24.532Z,19.80
2022-08-05T23:40:52.576Z,19.70
2022-08-05T23:43:25.245Z,19.60
2022-08-05T23:46:19.953Z,19.60
2022-08-05T23:49:00.490Z,19.60
2022-08-05T23:51:53.940Z,19.70
2022-08-05T23:54:36.260Z,19.70
2022-08-05T23:57:05.414Z,19.60
